sensor_id;sensor_type;location;lat;lon;timestamp;P1;durP1;ratioP1;P2;durP2;ratioP2
19664;SDS011;9980;51.020;7.772;2024-01-25T00:01:52;29.30;;;8.37;;
19664;SDS011;9980;51.020;7.772;2024-01-25T00:04:20;33.33;;;9.07;;
19664;SDS011;9980;51.020;7.772;2024-01-25T00:06:47;29.03;;;8.73;;
19664;SDS011;9980;51.020;7.772;2024-01-25T00:09:14;27.77;;;8.17;;
19664;SDS011;9980;51.020;7.772;2024-01-25T00:11:42;30.50;;;10.10;;
19664;SDS011;9980;51.020;7.772;2024-01-25T00:14:10;29.23;;;9.57;;
19664;SDS011;9980;51.020;7.772;2024-01-25T00:16:41;25.60;;;9.07;;
19664;SDS011;9980;51.020;7.772;2024-01-25T00:19:08;22.83;;;8.80;;
19664;SDS011;9980;51.020;7.772;2024-01-25T00:21:40;25.83;;;9.27;;
19664;SDS011;9980;51.020;7.772;2024-01-25T00:24:13;26.17;;;8.50;;
19664;SDS011;9980;51.020;7.772;2024-01-25T00:26:40;25.23;;;8.97;;
19664;SDS011;9980;51.020;7.772;2024-01-25T00:29:07;31.33;;;9.07;;
19664;SDS011;9980;51.020;7.772;2024-01-25T00:31:34;29.07;;;10.00;;
19664;SDS011;9980;51.020;7.772;2024-01-25T00:34:01;25.83;;;9.27;;
19664;SDS011;9980;51.020;7.772;2024-01-25T00:36:29;23.30;;;9.37;;
19664;SDS011;9980;51.020;7.772;2024-01-25T00:38:56;31.20;;;8.73;;
19664;SDS011;9980;51.020;7.772;2024-01-25T00:41:24;22.83;;;9.30;;
19664;SDS011;9980;51.020;7.772;2024-01-25T00:43:51;32.23;;;9.20;;
19664;SDS011;9980;51.020;7.772;2024-01-25T00:46:18;28.63;;;8.43;;
19664;SDS011;9980;51.020;7.772;2024-01-25T00:48:46;38.17;;;9.97;;
19664;SDS011;9980;51.020;7.772;2024-01-25T00:51:18;25.57;;;8.33;;
19664;SDS011;9980;51.020;7.772;2024-01-25T00:53:51;27.27;;;9.03;;
19664;SDS011;9980;51.020;7.772;2024-01-25T00:56:18;24.67;;;7.93;;
19664;SDS011;9980;51.020;7.772;2024-01-25T00:58:46;21.30;;;8.77;;
19664;SDS011;9980;51.020;7.772;2024-01-25T01:01:13;23.23;;;7.97;;
19664;SDS011;9980;51.020;7.772;2024-01-25T01:03:41;24.83;;;8.27;;
19664;SDS011;9980;51.020;7.772;2024-01-25T01:06:08;23.13;;;8.10;;
19664;SDS011;9980;51.020;7.772;2024-01-25T01:08:36;24.30;;;8.73;;
19664;SDS011;9980;51.020;7.772;2024-01-25T01:11:03;24.27;;;8.50;;
19664;SDS011;9980;51.020;7.772;2024-01-25T01:13:31;23.17;;;8.83;;
19664;SDS011;9980;51.020;7.772;2024-01-25T01:15:58;29.73;;;8.90;;
19664;SDS011;9980;51.020;7.772;2024-01-25T01:18:25;24.53;;;8.70;;
19664;SDS011;9980;51.020;7.772;2024-01-25T01:20:52;30.80;;;8.73;;
19664;SDS011;9980;51.020;7.772;2024-01-25T01:23:19;26.77;;;9.00;;
19664;SDS011;9980;51.020;7.772;2024-01-25T01:25:46;17.20;;;8.07;;
19664;SDS011;9980;51.020;7.772;2024-01-25T01:28:13;26.67;;;8.67;;
19664;SDS011;9980;51.020;7.772;2024-01-25T01:30:41;23.80;;;8.77;;
19664;SDS011;9980;51.020;7.772;2024-01-25T01:33:08;25.17;;;8.33;;
19664;SDS011;9980;51.020;7.772;2024-01-25T01:35:35;30.53;;;9.80;;
19664;SDS011;9980;51.020;7.772;2024-01-25T01:38:02;25.27;;;9.23;;
19664;SDS011;9980;51.020;7.772;2024-01-25T01:40:29;32.10;;;10.27;;
19664;SDS011;9980;51.020;7.772;2024-01-25T01:43:00;33.30;;;8.90;;
19664;SDS011;9980;51.020;7.772;2024-01-25T01:45:28;27.90;;;8.50;;
19664;SDS011;9980;51.020;7.772;2024-01-25T01:47:55;23.93;;;9.43;;
19664;SDS011;9980;51.020;7.772;2024-01-25T01:50:23;25.47;;;8.97;;
19664;SDS011;9980;51.020;7.772;2024-01-25T01:52:51;23.03;;;8.23;;
19664;SDS011;9980;51.020;7.772;2024-01-25T01:55:18;29.20;;;9.30;;
19664;SDS011;9980;51.020;7.772;2024-01-25T01:57:46;31.03;;;9.00;;
19664;SDS011;9980;51.020;7.772;2024-01-25T02:00:14;21.33;;;8.30;;
19664;SDS011;9980;51.020;7.772;2024-01-25T02:02:42;19.33;;;8.83;;
19664;SDS011;9980;51.020;7.772;2024-01-25T02:05:11;25.77;;;8.30;;
19664;SDS011;9980;51.020;7.772;2024-01-25T02:07:38;26.67;;;9.27;;
19664;SDS011;9980;51.020;7.772;2024-01-25T02:10:07;31.97;;;10.13;;
19664;SDS011;9980;51.020;7.772;2024-01-25T02:12:35;27.47;;;8.97;;
19664;SDS011;9980;51.020;7.772;2024-01-25T02:15:03;29.97;;;9.50;;
19664;SDS011;9980;51.020;7.772;2024-01-25T02:17:30;22.53;;;8.00;;
19664;SDS011;9980;51.020;7.772;2024-01-25T02:19:57;27.20;;;8.47;;
19664;SDS011;9980;51.020;7.772;2024-01-25T02:22:25;20.10;;;8.67;;
19664;SDS011;9980;51.020;7.772;2024-01-25T02:24:52;27.33;;;8.67;;
19664;SDS011;9980;51.020;7.772;2024-01-25T02:27:20;24.63;;;8.47;;
19664;SDS011;9980;51.020;7.772;2024-01-25T02:29:47;20.37;;;8.47;;
19664;SDS011;9980;51.020;7.772;2024-01-25T02:32:14;19.20;;;8.00;;
19664;SDS011;9980;51.020;7.772;2024-01-25T02:34:41;28.97;;;9.10;;
19664;SDS011;9980;51.020;7.772;2024-01-25T02:37:08;26.33;;;8.77;;
19664;SDS011;9980;51.020;7.772;2024-01-25T02:39:35;21.67;;;7.77;;
19664;SDS011;9980;51.020;7.772;2024-01-25T02:42:02;21.33;;;8.47;;
19664;SDS011;9980;51.020;7.772;2024-01-25T02:44:29;30.07;;;9.40;;
19664;SDS011;9980;51.020;7.772;2024-01-25T02:46:56;24.87;;;8.93;;
19664;SDS011;9980;51.020;7.772;2024-01-25T02:49:23;32.07;;;9.67;;
19664;SDS011;9980;51.020;7.772;2024-01-25T02:51:51;24.63;;;8.57;;
19664;SDS011;9980;51.020;7.772;2024-01-25T02:54:18;23.57;;;9.17;;
19664;SDS011;9980;51.020;7.772;2024-01-25T02:56:45;25.30;;;9.00;;
19664;SDS011;9980;51.020;7.772;2024-01-25T02:59:12;23.80;;;8.07;;
19664;SDS011;9980;51.020;7.772;2024-01-25T03:01:42;29.93;;;9.07;;
19664;SDS011;9980;51.020;7.772;2024-01-25T03:04:10;25.27;;;8.17;;
19664;SDS011;9980;51.020;7.772;2024-01-25T03:06:37;26.00;;;8.47;;
19664;SDS011;9980;51.020;7.772;2024-01-25T03:09:04;23.93;;;8.37;;
19664;SDS011;9980;51.020;7.772;2024-01-25T03:11:32;29.50;;;8.27;;
19664;SDS011;9980;51.020;7.772;2024-01-25T03:13:59;27.53;;;8.53;;
19664;SDS011;9980;51.020;7.772;2024-01-25T03:16:26;27.07;;;8.97;;
19664;SDS011;9980;51.020;7.772;2024-01-25T03:18:53;24.17;;;8.03;;
19664;SDS011;9980;51.020;7.772;2024-01-25T03:21:20;25.37;;;7.60;;
19664;SDS011;9980;51.020;7.772;2024-01-25T03:23:47;23.90;;;8.00;;
19664;SDS011;9980;51.020;7.772;2024-01-25T03:26:13;18.80;;;7.73;;
19664;SDS011;9980;51.020;7.772;2024-01-25T03:28:40;28.03;;;8.30;;
19664;SDS011;9980;51.020;7.772;2024-01-25T03:31:07;18.97;;;7.73;;
19664;SDS011;9980;51.020;7.772;2024-01-25T03:33:34;24.27;;;8.20;;
19664;SDS011;9980;51.020;7.772;2024-01-25T03:36:02;25.53;;;8.97;;
19664;SDS011;9980;51.020;7.772;2024-01-25T03:38:31;20.40;;;7.47;;
19664;SDS011;9980;51.020;7.772;2024-01-25T03:40:58;22.33;;;7.40;;
19664;SDS011;9980;51.020;7.772;2024-01-25T03:43:25;22.87;;;7.87;;
19664;SDS011;9980;51.020;7.772;2024-01-25T03:46:01;21.30;;;7.47;;
19664;SDS011;9980;51.020;7.772;2024-01-25T03:48:30;20.87;;;7.23;;
19664;SDS011;9980;51.020;7.772;2024-01-25T03:50:57;16.97;;;7.53;;
19664;SDS011;9980;51.020;7.772;2024-01-25T03:53:24;21.00;;;7.50;;
19664;SDS011;9980;51.020;7.772;2024-01-25T03:55:51;20.13;;;7.30;;
19664;SDS011;9980;51.020;7.772;2024-01-25T03:58:18;24.33;;;7.73;;
19664;SDS011;9980;51.020;7.772;2024-01-25T04:00:45;23.20;;;8.03;;
19664;SDS011;9980;51.020;7.772;2024-01-25T04:03:12;23.87;;;7.27;;
19664;SDS011;9980;51.020;7.772;2024-01-25T04:05:39;19.13;;;7.67;;
19664;SDS011;9980;51.020;7.772;2024-01-25T04:08:06;29.57;;;8.97;;
19664;SDS011;9980;51.020;7.772;2024-01-25T04:10:34;27.40;;;8.90;;
19664;SDS011;9980;51.020;7.772;2024-01-25T04:13:00;30.20;;;8.43;;
19664;SDS011;9980;51.020;7.772;2024-01-25T04:15:28;22.33;;;8.53;;
19664;SDS011;9980;51.020;7.772;2024-01-25T04:17:55;17.20;;;7.20;;
19664;SDS011;9980;51.020;7.772;2024-01-25T04:20:22;22.50;;;7.77;;
19664;SDS011;9980;51.020;7.772;2024-01-25T04:22:50;22.33;;;8.47;;
19664;SDS011;9980;51.020;7.772;2024-01-25T04:25:17;25.10;;;8.07;;
19664;SDS011;9980;51.020;7.772;2024-01-25T04:27:44;17.53;;;7.37;;
19664;SDS011;9980;51.020;7.772;2024-01-25T04:30:11;20.43;;;7.70;;
19664;SDS011;9980;51.020;7.772;2024-01-25T04:32:38;25.07;;;7.57;;
19664;SDS011;9980;51.020;7.772;2024-01-25T04:35:07;28.90;;;7.83;;
19664;SDS011;9980;51.020;7.772;2024-01-25T04:37:35;20.97;;;8.43;;
19664;SDS011;9980;51.020;7.772;2024-01-25T04:40:02;21.10;;;7.60;;
19664;SDS011;9980;51.020;7.772;2024-01-25T04:42:31;22.40;;;8.27;;
19664;SDS011;9980;51.020;7.772;2024-01-25T04:44:58;20.40;;;7.10;;
19664;SDS011;9980;51.020;7.772;2024-01-25T04:47:25;26.00;;;7.77;;
19664;SDS011;9980;51.020;7.772;2024-01-25T04:49:52;19.13;;;7.73;;
19664;SDS011;9980;51.020;7.772;2024-01-25T04:52:19;20.27;;;7.97;;
19664;SDS011;9980;51.020;7.772;2024-01-25T04:54:46;18.77;;;6.70;;
19664;SDS011;9980;51.020;7.772;2024-01-25T04:57:13;20.00;;;8.57;;
19664;SDS011;9980;51.020;7.772;2024-01-25T04:59:40;10.67;;;6.20;;
19664;SDS011;9980;51.020;7.772;2024-01-25T05:02:07;25.43;;;7.43;;
19664;SDS011;9980;51.020;7.772;2024-01-25T05:04:34;18.97;;;6.93;;
19664;SDS011;9980;51.020;7.772;2024-01-25T05:07:02;19.73;;;7.53;;
19664;SDS011;9980;51.020;7.772;2024-01-25T05:09:29;18.03;;;8.03;;
19664;SDS011;9980;51.020;7.772;2024-01-25T05:11:56;22.50;;;7.63;;
19664;SDS011;9980;51.020;7.772;2024-01-25T05:14:24;23.43;;;7.90;;
19664;SDS011;9980;51.020;7.772;2024-01-25T05:16:51;14.43;;;6.27;;
19664;SDS011;9980;51.020;7.772;2024-01-25T05:19:18;18.43;;;7.80;;
19664;SDS011;9980;51.020;7.772;2024-01-25T05:21:45;16.30;;;6.77;;
19664;SDS011;9980;51.020;7.772;2024-01-25T05:24:12;23.00;;;8.07;;
19664;SDS011;9980;51.020;7.772;2024-01-25T05:26:39;14.77;;;7.57;;
19664;SDS011;9980;51.020;7.772;2024-01-25T05:29:06;19.80;;;8.37;;
19664;SDS011;9980;51.020;7.772;2024-01-25T05:31:34;21.83;;;8.87;;
19664;SDS011;9980;51.020;7.772;2024-01-25T05:34:01;21.70;;;8.93;;
19664;SDS011;9980;51.020;7.772;2024-01-25T05:36:28;12.90;;;6.33;;
19664;SDS011;9980;51.020;7.772;2024-01-25T05:38:55;22.13;;;8.70;;
19664;SDS011;9980;51.020;7.772;2024-01-25T05:41:22;20.10;;;7.67;;
19664;SDS011;9980;51.020;7.772;2024-01-25T05:43:49;21.50;;;7.80;;
19664;SDS011;9980;51.020;7.772;2024-01-25T05:46:16;15.13;;;7.67;;
19664;SDS011;9980;51.020;7.772;2024-01-25T05:48:43;18.23;;;7.80;;
19664;SDS011;9980;51.020;7.772;2024-01-25T05:51:10;21.33;;;7.73;;
19664;SDS011;9980;51.020;7.772;2024-01-25T05:53:37;25.23;;;8.43;;
19664;SDS011;9980;51.020;7.772;2024-01-25T05:56:04;20.07;;;7.73;;
19664;SDS011;9980;51.020;7.772;2024-01-25T05:58:31;26.13;;;8.20;;
19664;SDS011;9980;51.020;7.772;2024-01-25T06:00:59;20.50;;;8.97;;
19664;SDS011;9980;51.020;7.772;2024-01-25T06:03:26;36.90;;;8.93;;
19664;SDS011;9980;51.020;7.772;2024-01-25T06:05:53;20.70;;;7.73;;
19664;SDS011;9980;51.020;7.772;2024-01-25T06:08:21;11.93;;;7.10;;
19664;SDS011;9980;51.020;7.772;2024-01-25T06:10:48;17.10;;;7.70;;
19664;SDS011;9980;51.020;7.772;2024-01-25T06:13:16;13.93;;;6.57;;
19664;SDS011;9980;51.020;7.772;2024-01-25T06:15:43;20.33;;;9.20;;
19664;SDS011;9980;51.020;7.772;2024-01-25T06:18:10;22.73;;;7.97;;
19664;SDS011;9980;51.020;7.772;2024-01-25T06:20:37;16.73;;;9.03;;
19664;SDS011;9980;51.020;7.772;2024-01-25T06:23:05;18.80;;;9.27;;
19664;SDS011;9980;51.020;7.772;2024-01-25T06:25:31;17.97;;;8.10;;
19664;SDS011;9980;51.020;7.772;2024-01-25T06:28:00;24.50;;;9.23;;
19664;SDS011;9980;51.020;7.772;2024-01-25T06:30:28;22.70;;;9.60;;
19664;SDS011;9980;51.020;7.772;2024-01-25T06:32:55;22.40;;;7.87;;
19664;SDS011;9980;51.020;7.772;2024-01-25T06:35:22;21.37;;;8.23;;
19664;SDS011;9980;51.020;7.772;2024-01-25T06:37:49;18.97;;;8.37;;
19664;SDS011;9980;51.020;7.772;2024-01-25T06:40:16;20.30;;;8.30;;
19664;SDS011;9980;51.020;7.772;2024-01-25T06:42:44;24.13;;;9.77;;
19664;SDS011;9980;51.020;7.772;2024-01-25T06:45:11;29.47;;;13.33;;
19664;SDS011;9980;51.020;7.772;2024-01-25T06:47:38;28.33;;;10.07;;
19664;SDS011;9980;51.020;7.772;2024-01-25T06:50:05;26.07;;;11.17;;
19664;SDS011;9980;51.020;7.772;2024-01-25T06:52:33;28.17;;;11.13;;
19664;SDS011;9980;51.020;7.772;2024-01-25T06:55:00;32.93;;;14.00;;
19664;SDS011;9980;51.020;7.772;2024-01-25T06:57:28;30.07;;;13.47;;
19664;SDS011;9980;51.020;7.772;2024-01-25T06:59:55;28.23;;;13.37;;
19664;SDS011;9980;51.020;7.772;2024-01-25T07:02:22;23.40;;;10.27;;
19664;SDS011;9980;51.020;7.772;2024-01-25T07:04:49;27.17;;;10.47;;
19664;SDS011;9980;51.020;7.772;2024-01-25T07:07:19;23.57;;;10.10;;
19664;SDS011;9980;51.020;7.772;2024-01-25T07:09:46;28.80;;;10.20;;
19664;SDS011;9980;51.020;7.772;2024-01-25T07:12:13;26.50;;;11.83;;
19664;SDS011;9980;51.020;7.772;2024-01-25T07:14:40;28.37;;;11.63;;
19664;SDS011;9980;51.020;7.772;2024-01-25T07:17:07;26.67;;;10.73;;
19664;SDS011;9980;51.020;7.772;2024-01-25T07:19:34;23.33;;;11.63;;
19664;SDS011;9980;51.020;7.772;2024-01-25T07:22:01;25.07;;;11.40;;
19664;SDS011;9980;51.020;7.772;2024-01-25T07:24:28;29.50;;;12.67;;
19664;SDS011;9980;51.020;7.772;2024-01-25T07:26:55;35.10;;;16.50;;
19664;SDS011;9980;51.020;7.772;2024-01-25T07:29:22;36.47;;;18.37;;
19664;SDS011;9980;51.020;7.772;2024-01-25T07:31:49;34.17;;;14.37;;
19664;SDS011;9980;51.020;7.772;2024-01-25T07:34:17;25.47;;;11.17;;
19664;SDS011;9980;51.020;7.772;2024-01-25T07:36:44;33.97;;;13.33;;
19664;SDS011;9980;51.020;7.772;2024-01-25T07:39:11;29.87;;;13.60;;
19664;SDS011;9980;51.020;7.772;2024-01-25T07:41:38;31.20;;;12.93;;
19664;SDS011;9980;51.020;7.772;2024-01-25T07:44:05;28.47;;;11.67;;
19664;SDS011;9980;51.020;7.772;2024-01-25T07:46:32;27.60;;;12.00;;
19664;SDS011;9980;51.020;7.772;2024-01-25T07:48:59;26.20;;;10.23;;
19664;SDS011;9980;51.020;7.772;2024-01-25T07:51:26;27.87;;;11.80;;
19664;SDS011;9980;51.020;7.772;2024-01-25T07:53:55;33.83;;;12.27;;
19664;SDS011;9980;51.020;7.772;2024-01-25T07:56:22;32.90;;;14.90;;
19664;SDS011;9980;51.020;7.772;2024-01-25T07:58:49;37.07;;;12.33;;
19664;SDS011;9980;51.020;7.772;2024-01-25T08:01:17;31.33;;;12.43;;
19664;SDS011;9980;51.020;7.772;2024-01-25T08:03:45;29.47;;;11.57;;
19664;SDS011;9980;51.020;7.772;2024-01-25T08:06:13;26.70;;;11.43;;
19664;SDS011;9980;51.020;7.772;2024-01-25T08:08:40;30.43;;;11.33;;
19664;SDS011;9980;51.020;7.772;2024-01-25T08:11:07;30.73;;;10.70;;
19664;SDS011;9980;51.020;7.772;2024-01-25T08:13:34;36.03;;;11.30;;
19664;SDS011;9980;51.020;7.772;2024-01-25T08:16:01;34.50;;;13.13;;
19664;SDS011;9980;51.020;7.772;2024-01-25T08:18:28;30.07;;;11.67;;
19664;SDS011;9980;51.020;7.772;2024-01-25T08:20:56;29.17;;;12.40;;
19664;SDS011;9980;51.020;7.772;2024-01-25T08:23:23;27.63;;;11.70;;
19664;SDS011;9980;51.020;7.772;2024-01-25T08:25:50;26.67;;;12.33;;
19664;SDS011;9980;51.020;7.772;2024-01-25T08:28:17;30.33;;;11.47;;
19664;SDS011;9980;51.020;7.772;2024-01-25T08:30:46;35.07;;;11.53;;
19664;SDS011;9980;51.020;7.772;2024-01-25T08:33:13;36.07;;;11.90;;
19664;SDS011;9980;51.020;7.772;2024-01-25T08:35:41;19.93;;;10.60;;
19664;SDS011;9980;51.020;7.772;2024-01-25T08:38:09;26.47;;;11.30;;
19664;SDS011;9980;51.020;7.772;2024-01-25T08:40:36;26.80;;;11.10;;
19664;SDS011;9980;51.020;7.772;2024-01-25T08:43:03;25.60;;;11.13;;
19664;SDS011;9980;51.020;7.772;2024-01-25T08:45:31;21.30;;;10.83;;
19664;SDS011;9980;51.020;7.772;2024-01-25T08:47:58;32.40;;;12.07;;
19664;SDS011;9980;51.020;7.772;2024-01-25T08:50:26;31.50;;;11.67;;
19664;SDS011;9980;51.020;7.772;2024-01-25T08:52:53;35.20;;;12.87;;
19664;SDS011;9980;51.020;7.772;2024-01-25T08:55:20;20.00;;;9.90;;
19664;SDS011;9980;51.020;7.772;2024-01-25T08:57:49;24.40;;;11.70;;
19664;SDS011;9980;51.020;7.772;2024-01-25T09:00:16;30.03;;;11.20;;
19664;SDS011;9980;51.020;7.772;2024-01-25T09:02:44;22.50;;;9.40;;
19664;SDS011;9980;51.020;7.772;2024-01-25T09:05:12;23.40;;;10.60;;
19664;SDS011;9980;51.020;7.772;2024-01-25T09:07:39;28.37;;;11.27;;
19664;SDS011;9980;51.020;7.772;2024-01-25T09:10:07;34.37;;;10.83;;
19664;SDS011;9980;51.020;7.772;2024-01-25T09:12:35;29.63;;;11.00;;
19664;SDS011;9980;51.020;7.772;2024-01-25T09:15:03;31.20;;;12.20;;
19664;SDS011;9980;51.020;7.772;2024-01-25T09:17:31;32.07;;;10.73;;
19664;SDS011;9980;51.020;7.772;2024-01-25T09:19:58;28.80;;;11.60;;
19664;SDS011;9980;51.020;7.772;2024-01-25T09:22:26;29.50;;;11.73;;
19664;SDS011;9980;51.020;7.772;2024-01-25T09:24:53;42.83;;;15.63;;
19664;SDS011;9980;51.020;7.772;2024-01-25T09:27:20;29.93;;;13.03;;
19664;SDS011;9980;51.020;7.772;2024-01-25T09:29:47;29.47;;;12.80;;
19664;SDS011;9980;51.020;7.772;2024-01-25T09:32:15;33.73;;;14.07;;
19664;SDS011;9980;51.020;7.772;2024-01-25T09:34:43;32.70;;;15.10;;
19664;SDS011;9980;51.020;7.772;2024-01-25T09:37:10;34.13;;;14.33;;
19664;SDS011;9980;51.020;7.772;2024-01-25T09:39:38;30.03;;;13.17;;
19664;SDS011;9980;51.020;7.772;2024-01-25T09:42:05;29.77;;;13.03;;
19664;SDS011;9980;51.020;7.772;2024-01-25T09:44:33;34.17;;;14.57;;
19664;SDS011;9980;51.020;7.772;2024-01-25T09:47:03;28.53;;;12.40;;
19664;SDS011;9980;51.020;7.772;2024-01-25T09:49:36;23.53;;;11.73;;
19664;SDS011;9980;51.020;7.772;2024-01-25T09:52:04;24.43;;;12.33;;
19664;SDS011;9980;51.020;7.772;2024-01-25T09:54:35;29.33;;;13.17;;
19664;SDS011;9980;51.020;7.772;2024-01-25T09:57:07;29.60;;;12.73;;
19664;SDS011;9980;51.020;7.772;2024-01-25T09:59:43;27.87;;;11.30;;
19664;SDS011;9980;51.020;7.772;2024-01-25T10:02:10;28.70;;;12.20;;
19664;SDS011;9980;51.020;7.772;2024-01-25T10:04:38;28.70;;;11.13;;
19664;SDS011;9980;51.020;7.772;2024-01-25T10:07:05;29.57;;;12.07;;
19664;SDS011;9980;51.020;7.772;2024-01-25T10:09:40;29.83;;;12.00;;
19664;SDS011;9980;51.020;7.772;2024-01-25T10:12:08;28.00;;;11.50;;
19664;SDS011;9980;51.020;7.772;2024-01-25T10:14:44;28.90;;;12.07;;
19664;SDS011;9980;51.020;7.772;2024-01-25T10:17:11;26.20;;;11.67;;
19664;SDS011;9980;51.020;7.772;2024-01-25T10:19:42;29.87;;;11.53;;
19664;SDS011;9980;51.020;7.772;2024-01-25T10:22:11;35.60;;;12.47;;
19664;SDS011;9980;51.020;7.772;2024-01-25T10:24:41;26.97;;;12.47;;
19664;SDS011;9980;51.020;7.772;2024-01-25T10:27:10;30.73;;;11.97;;
19664;SDS011;9980;51.020;7.772;2024-01-25T10:29:37;32.77;;;12.47;;
19664;SDS011;9980;51.020;7.772;2024-01-25T10:32:05;28.93;;;11.17;;
19664;SDS011;9980;51.020;7.772;2024-01-25T10:34:38;22.93;;;10.03;;
19664;SDS011;9980;51.020;7.772;2024-01-25T10:37:06;29.43;;;10.10;;
19664;SDS011;9980;51.020;7.772;2024-01-25T10:39:34;25.73;;;10.27;;
19664;SDS011;9980;51.020;7.772;2024-01-25T10:42:02;16.90;;;8.37;;
19664;SDS011;9980;51.020;7.772;2024-01-25T10:44:29;28.30;;;10.23;;
19664;SDS011;9980;51.020;7.772;2024-01-25T10:46:56;26.57;;;10.43;;
19664;SDS011;9980;51.020;7.772;2024-01-25T10:49:24;26.50;;;9.93;;
19664;SDS011;9980;51.020;7.772;2024-01-25T10:51:52;29.07;;;10.23;;
19664;SDS011;9980;51.020;7.772;2024-01-25T10:54:20;25.20;;;9.43;;
19664;SDS011;9980;51.020;7.772;2024-01-25T10:56:48;23.27;;;9.97;;
19664;SDS011;9980;51.020;7.772;2024-01-25T10:59:15;21.60;;;9.63;;
19664;SDS011;9980;51.020;7.772;2024-01-25T11:01:47;18.93;;;9.27;;
19664;SDS011;9980;51.020;7.772;2024-01-25T11:04:18;24.07;;;10.33;;
19664;SDS011;9980;51.020;7.772;2024-01-25T11:06:46;34.03;;;11.53;;
19664;SDS011;9980;51.020;7.772;2024-01-25T11:09:16;23.17;;;8.97;;
19664;SDS011;9980;51.020;7.772;2024-01-25T11:11:48;29.10;;;9.83;;
19664;SDS011;9980;51.020;7.772;2024-01-25T11:14:16;25.37;;;10.27;;
19664;SDS011;9980;51.020;7.772;2024-01-25T11:16:45;28.67;;;9.57;;
19664;SDS011;9980;51.020;7.772;2024-01-25T11:19:20;23.60;;;9.43;;
19664;SDS011;9980;51.020;7.772;2024-01-25T11:21:49;22.30;;;9.47;;
19664;SDS011;9980;51.020;7.772;2024-01-25T11:24:21;20.37;;;9.10;;
19664;SDS011;9980;51.020;7.772;2024-01-25T11:26:53;24.27;;;9.00;;
19664;SDS011;9980;51.020;7.772;2024-01-25T11:29:21;25.03;;;9.67;;
19664;SDS011;9980;51.020;7.772;2024-01-25T11:31:50;30.30;;;10.17;;
19664;SDS011;9980;51.020;7.772;2024-01-25T11:34:19;19.07;;;8.70;;
19664;SDS011;9980;51.020;7.772;2024-01-25T11:36:47;25.07;;;9.13;;
19664;SDS011;9980;51.020;7.772;2024-01-25T11:39:15;25.00;;;8.40;;
19664;SDS011;9980;51.020;7.772;2024-01-25T11:41:43;24.87;;;8.40;;
19664;SDS011;9980;51.020;7.772;2024-01-25T11:44:11;25.20;;;8.50;;
19664;SDS011;9980;51.020;7.772;2024-01-25T11:46:42;20.33;;;8.27;;
19664;SDS011;9980;51.020;7.772;2024-01-25T11:49:09;25.53;;;8.00;;
19664;SDS011;9980;51.020;7.772;2024-01-25T11:51:37;25.93;;;9.10;;
19664;SDS011;9980;51.020;7.772;2024-01-25T11:54:04;19.53;;;8.57;;
19664;SDS011;9980;51.020;7.772;2024-01-25T11:56:33;21.97;;;8.20;;
19664;SDS011;9980;51.020;7.772;2024-01-25T11:59:08;23.13;;;8.53;;
19664;SDS011;9980;51.020;7.772;2024-01-25T12:01:36;17.33;;;7.33;;
19664;SDS011;9980;51.020;7.772;2024-01-25T12:04:04;17.77;;;6.63;;
19664;SDS011;9980;51.020;7.772;2024-01-25T12:06:31;21.20;;;7.63;;
19664;SDS011;9980;51.020;7.772;2024-01-25T12:09:09;23.17;;;7.93;;
19664;SDS011;9980;51.020;7.772;2024-01-25T12:11:38;21.63;;;7.27;;
19664;SDS011;9980;51.020;7.772;2024-01-25T12:14:10;28.43;;;7.27;;
19664;SDS011;9980;51.020;7.772;2024-01-25T12:16:40;26.87;;;8.77;;
19664;SDS011;9980;51.020;7.772;2024-01-25T12:19:07;20.77;;;7.30;;
19664;SDS011;9980;51.020;7.772;2024-01-25T12:21:35;27.20;;;7.90;;
19664;SDS011;9980;51.020;7.772;2024-01-25T12:24:03;20.03;;;6.60;;
19664;SDS011;9980;51.020;7.772;2024-01-25T12:26:36;18.07;;;6.90;;
19664;SDS011;9980;51.020;7.772;2024-01-25T12:29:03;24.80;;;7.60;;
19664;SDS011;9980;51.020;7.772;2024-01-25T12:31:31;19.17;;;7.10;;
19664;SDS011;9980;51.020;7.772;2024-01-25T12:33:58;18.10;;;6.03;;
19664;SDS011;9980;51.020;7.772;2024-01-25T12:36:27;22.90;;;7.20;;
19664;SDS011;9980;51.020;7.772;2024-01-25T12:38:54;23.97;;;7.27;;
19664;SDS011;9980;51.020;7.772;2024-01-25T12:41:21;24.63;;;7.53;;
19664;SDS011;9980;51.020;7.772;2024-01-25T12:43:48;28.33;;;7.37;;
19664;SDS011;9980;51.020;7.772;2024-01-25T12:46:16;22.47;;;8.17;;
19664;SDS011;9980;51.020;7.772;2024-01-25T12:48:53;26.47;;;11.20;;
19664;SDS011;9980;51.020;7.772;2024-01-25T12:51:22;29.90;;;9.10;;
19664;SDS011;9980;51.020;7.772;2024-01-25T12:53:50;25.40;;;8.17;;
19664;SDS011;9980;51.020;7.772;2024-01-25T12:56:17;20.60;;;7.50;;
19664;SDS011;9980;51.020;7.772;2024-01-25T12:58:45;23.33;;;7.30;;
19664;SDS011;9980;51.020;7.772;2024-01-25T13:01:12;20.10;;;7.53;;
19664;SDS011;9980;51.020;7.772;2024-01-25T13:03:42;20.23;;;7.60;;
19664;SDS011;9980;51.020;7.772;2024-01-25T13:06:11;24.60;;;7.93;;
19664;SDS011;9980;51.020;7.772;2024-01-25T13:08:39;18.67;;;7.20;;
19664;SDS011;9980;51.020;7.772;2024-01-25T13:11:06;18.43;;;7.40;;
19664;SDS011;9980;51.020;7.772;2024-01-25T13:13:33;24.70;;;7.73;;
19664;SDS011;9980;51.020;7.772;2024-01-25T13:16:00;28.10;;;7.93;;
19664;SDS011;9980;51.020;7.772;2024-01-25T13:18:28;26.37;;;7.23;;
19664;SDS011;9980;51.020;7.772;2024-01-25T13:20:55;23.57;;;8.23;;
19664;SDS011;9980;51.020;7.772;2024-01-25T13:23:22;30.50;;;9.10;;
19664;SDS011;9980;51.020;7.772;2024-01-25T13:25:49;25.90;;;7.53;;
19664;SDS011;9980;51.020;7.772;2024-01-25T13:28:16;20.60;;;7.70;;
19664;SDS011;9980;51.020;7.772;2024-01-25T13:30:47;22.93;;;7.97;;
19664;SDS011;9980;51.020;7.772;2024-01-25T13:33:15;19.17;;;6.97;;
19664;SDS011;9980;51.020;7.772;2024-01-25T13:35:42;29.60;;;8.17;;
19664;SDS011;9980;51.020;7.772;2024-01-25T13:38:09;17.87;;;7.33;;
19664;SDS011;9980;51.020;7.772;2024-01-25T13:40:40;21.83;;;7.47;;
19664;SDS011;9980;51.020;7.772;2024-01-25T13:43:07;25.67;;;7.07;;
19664;SDS011;9980;51.020;7.772;2024-01-25T13:45:34;18.87;;;6.27;;
19664;SDS011;9980;51.020;7.772;2024-01-25T13:48:02;20.70;;;7.60;;
19664;SDS011;9980;51.020;7.772;2024-01-25T13:50:29;16.40;;;5.93;;
19664;SDS011;9980;51.020;7.772;2024-01-25T13:52:56;16.60;;;6.70;;
19664;SDS011;9980;51.020;7.772;2024-01-25T13:55:23;21.00;;;6.70;;
19664;SDS011;9980;51.020;7.772;2024-01-25T13:57:49;17.47;;;6.63;;
19664;SDS011;9980;51.020;7.772;2024-01-25T14:00:17;19.73;;;6.53;;
19664;SDS011;9980;51.020;7.772;2024-01-25T14:02:44;20.57;;;7.20;;
19664;SDS011;9980;51.020;7.772;2024-01-25T14:05:13;22.17;;;5.83;;
19664;SDS011;9980;51.020;7.772;2024-01-25T14:07:40;19.77;;;6.93;;
19664;SDS011;9980;51.020;7.772;2024-01-25T14:10:08;22.73;;;7.33;;
19664;SDS011;9980;51.020;7.772;2024-01-25T14:12:36;21.97;;;7.00;;
19664;SDS011;9980;51.020;7.772;2024-01-25T14:15:04;16.83;;;7.00;;
19664;SDS011;9980;51.020;7.772;2024-01-25T14:17:31;22.93;;;6.60;;
19664;SDS011;9980;51.020;7.772;2024-01-25T14:19:58;17.70;;;6.33;;
19664;SDS011;9980;51.020;7.772;2024-01-25T14:22:28;23.40;;;6.77;;
19664;SDS011;9980;51.020;7.772;2024-01-25T14:25:00;14.30;;;7.07;;
19664;SDS011;9980;51.020;7.772;2024-01-25T14:27:27;18.27;;;6.93;;
19664;SDS011;9980;51.020;7.772;2024-01-25T14:29:55;14.67;;;6.30;;
19664;SDS011;9980;51.020;7.772;2024-01-25T14:32:22;14.07;;;5.53;;
19664;SDS011;9980;51.020;7.772;2024-01-25T14:34:49;16.70;;;6.60;;
19664;SDS011;9980;51.020;7.772;2024-01-25T14:37:17;17.13;;;6.70;;
19664;SDS011;9980;51.020;7.772;2024-01-25T14:39:44;22.50;;;15.13;;
19664;SDS011;9980;51.020;7.772;2024-01-25T14:42:31;22.67;;;7.67;;
19664;SDS011;9980;51.020;7.772;2024-01-25T14:44:58;29.83;;;12.93;;
19664;SDS011;9980;51.020;7.772;2024-01-25T14:47:24;30.97;;;10.23;;